sensor_id;sensor_type;location;lat;lon;timestamp;temperature;humidity
66928;DHT22;59882;45.624;11.698;2022-08-19T00:02:06;23.10;74.20
66928;DHT22;59882;45.624;11.698;2022-08-19T00:04:34;23.10;74.20
66928;DHT22;59882;45.624;11.698;2022-08-19T00:07:02;23.10;74.20
66928;DHT22;59882;45.624;11.698;2022-08-19T00:09:29;23.10;74.00
66928;DHT22;59882;45.624;11.698;2022-08-19T00:11:56;23.20;74.00
66928;DHT22;59882;45.624;11.698;2022-08-19T00:14:23;23.10;75.00
66928;DHT22;59882;45.624;11.698;2022-08-19T00:16:49;23.10;75.60
66928;DHT22;59882;45.624;11.698;2022-08-19T00:19:20;23.10;75.60
66928;DHT22;59882;45.624;11.698;2022-08-19T00:21:46;23.10;75.70
66928;DHT22;59882;45.624;11.698;2022-08-19T00:24:13;23.00;76.00
66928;DHT22;59882;45.624;11.698;2022-08-19T00:26:41;23.00;75.40
66928;DHT22;59882;45.624;11.698;2022-08-19T00:29:08;23.00;75.60
66928;DHT22;59882;45.624;11.698;2022-08-19T00:31:35;23.10;75.60
66928;DHT22;59882;45.624;11.698;2022-08-19T00:34:01;23.00;75.20
66928;DHT22;59882;45.624;11.698;2022-08-19T00:36:27;23.00;75.20
66928;DHT22;59882;45.624;11.698;2022-08-19T00:38:54;23.00;75.50
66928;DHT22;59882;45.624;11.698;2022-08-19T00:41:21;23.00;76.50
66928;DHT22;59882;45.624;11.698;2022-08-19T00:46:27;23.00;77.40
66928;DHT22;59882;45.624;11.698;2022-08-19T00:48:54;22.90;78.00
66928;DHT22;59882;45.624;11.698;2022-08-19T00:51:20;22.90;77.90
66928;DHT22;59882;45.624;11.698;2022-08-19T00:53:45;22.90;77.70
66928;DHT22;59882;45.624;11.698;2022-08-19T00:56:11;22.80;78.40
66928;DHT22;59882;45.624;11.698;2022-08-19T00:58:37;22.90;78.10
66928;DHT22;59882;45.624;11.698;2022-08-19T01:01:04;22.80;78.00
66928;DHT22;59882;45.624;11.698;2022-08-19T01:03:30;22.80;78.20
66928;DHT22;59882;45.624;11.698;2022-08-19T01:05:55;22.80;78.40
66928;DHT22;59882;45.624;11.698;2022-08-19T01:08:21;22.70;78.40
66928;DHT22;59882;45.624;11.698;2022-08-19T01:10:54;22.70;78.30
66928;DHT22;59882;45.624;11.698;2022-08-19T01:13:22;22.70;78.60
66928;DHT22;59882;45.624;11.698;2022-08-19T01:15:53;22.70;79.00
66928;DHT22;59882;45.624;11.698;2022-08-19T01:18:21;22.70;78.70
66928;DHT22;59882;45.624;11.698;2022-08-19T01:20:47;22.60;79.20
66928;DHT22;59882;45.624;11.698;2022-08-19T01:23:13;22.60;79.30
66928;DHT22;59882;45.624;11.698;2022-08-19T01:25:47;22.50;79.50
66928;DHT22;59882;45.624;11.698;2022-08-19T01:28:26;22.40;80.00
66928;DHT22;59882;45.624;11.698;2022-08-19T01:30:53;22.40;79.90
66928;DHT22;59882;45.624;11.698;2022-08-19T01:33:19;22.30;79.80
66928;DHT22;59882;45.624;11.698;2022-08-19T01:35:46;22.20;79.80
66928;DHT22;59882;45.624;11.698;2022-08-19T01:38:26;22.20;79.40
66928;DHT22;59882;45.624;11.698;2022-08-19T01:40:52;22.20;79.10
66928;DHT22;59882;45.624;11.698;2022-08-19T01:43:18;22.20;78.80
66928;DHT22;59882;45.624;11.698;2022-08-19T01:45:44;22.20;78.80
66928;DHT22;59882;45.624;11.698;2022-08-19T01:48:10;22.20;78.70
66928;DHT22;59882;45.624;11.698;2022-08-19T01:50:37;22.20;78.40
66928;DHT22;59882;45.624;11.698;2022-08-19T01:53:06;22.30;78.30
66928;DHT22;59882;45.624;11.698;2022-08-19T01:55:33;22.40;78.60
66928;DHT22;59882;45.624;11.698;2022-08-19T01:58:02;22.30;78.70
66928;DHT22;59882;45.624;11.698;2022-08-19T02:00:31;22.40;78.60
66928;DHT22;59882;45.624;11.698;2022-08-19T02:02:57;22.40;78.40
66928;DHT22;59882;45.624;11.698;2022-08-19T02:05:23;22.40;78.50
66928;DHT22;59882;45.624;11.698;2022-08-19T02:07:49;22.40;78.90
66928;DHT22;59882;45.624;11.698;2022-08-19T02:10:19;22.40;78.30
66928;DHT22;59882;45.624;11.698;2022-08-19T02:12:47;22.40;78.10
66928;DHT22;59882;45.624;11.698;2022-08-19T02:15:14;22.40;78.70
66928;DHT22;59882;45.624;11.698;2022-08-19T02:17:41;22.40;78.60
66928;DHT22;59882;45.624;11.698;2022-08-19T02:20:08;22.40;78.70
66928;DHT22;59882;45.624;11.698;2022-08-19T02:22:34;22.40;78.60
66928;DHT22;59882;45.624;11.698;2022-08-19T02:25:00;22.40;79.10
66928;DHT22;59882;45.624;11.698;2022-08-19T02:27:26;22.40;79.60
66928;DHT22;59882;45.624;11.698;2022-08-19T02:29:52;22.20;79.90
66928;DHT22;59882;45.624;11.698;2022-08-19T02:32:19;22.20;79.70
66928;DHT22;59882;45.624;11.698;2022-08-19T02:34:46;22.10;79.80
66928;DHT22;59882;45.624;11.698;2022-08-19T02:37:12;22.00;80.00
66928;DHT22;59882;45.624;11.698;2022-08-19T02:39:58;22.10;79.50
66928;DHT22;59882;45.624;11.698;2022-08-19T02:42:24;22.10;79.30
66928;DHT22;59882;45.624;11.698;2022-08-19T02:44:50;22.10;80.00
66928;DHT22;59882;45.624;11.698;2022-08-19T02:47:17;21.90;79.90
66928;DHT22;59882;45.624;11.698;2022-08-19T02:49:44;21.90;79.90
66928;DHT22;59882;45.624;11.698;2022-08-19T02:52:10;21.90;80.70
66928;DHT22;59882;45.624;11.698;2022-08-19T02:54:37;21.80;80.40
66928;DHT22;59882;45.624;11.698;2022-08-19T02:57:04;21.70;80.70
66928;DHT22;59882;45.624;11.698;2022-08-19T02:59:30;21.70;80.90
66928;DHT22;59882;45.624;11.698;2022-08-19T03:01:56;21.70;80.30
66928;DHT22;59882;45.624;11.698;2022-08-19T03:04:22;21.70;80.60
66928;DHT22;59882;45.624;11.698;2022-08-19T03:06:48;21.60;80.50
66928;DHT22;59882;45.624;11.698;2022-08-19T03:09:15;21.60;81.40
66928;DHT22;59882;45.624;11.698;2022-08-19T03:11:41;21.60;80.20
66928;DHT22;59882;45.624;11.698;2022-08-19T03:14:08;21.60;79.90
66928;DHT22;59882;45.624;11.698;2022-08-19T03:16:39;21.70;79.30
66928;DHT22;59882;45.624;11.698;2022-08-19T03:19:05;21.70;79.30
66928;DHT22;59882;45.624;11.698;2022-08-19T03:21:33;21.70;79.20
66928;DHT22;59882;45.624;11.698;2022-08-19T03:24:02;21.80;79.10
66928;DHT22;59882;45.624;11.698;2022-08-19T03:26:29;21.80;78.90
66928;DHT22;59882;45.624;11.698;2022-08-19T03:28:55;21.90;78.80
66928;DHT22;59882;45.624;11.698;2022-08-19T03:31:22;21.90;78.50
66928;DHT22;59882;45.624;11.698;2022-08-19T03:33:49;21.90;78.30
66928;DHT22;59882;45.624;11.698;2022-08-19T03:36:19;21.90;78.40
66928;DHT22;59882;45.624;11.698;2022-08-19T03:38:55;21.90;78.30
66928;DHT22;59882;45.624;11.698;2022-08-19T03:41:24;21.90;78.30
66928;DHT22;59882;45.624;11.698;2022-08-19T03:43:50;21.90;78.20
66928;DHT22;59882;45.624;11.698;2022-08-19T03:46:18;21.90;78.10
66928;DHT22;59882;45.624;11.698;2022-08-19T03:48:48;21.90;78.10
66928;DHT22;59882;45.624;11.698;2022-08-19T03:51:24;21.80;78.20
66928;DHT22;59882;45.624;11.698;2022-08-19T03:53:51;21.90;78.00
66928;DHT22;59882;45.624;11.698;2022-08-19T03:56:18;21.80;78.00
66928;DHT22;59882;45.624;11.698;2022-08-19T03:58:44;21.80;78.10
66928;DHT22;59882;45.624;11.698;2022-08-19T04:01:16;21.80;77.70
66928;DHT22;59882;45.624;11.698;2022-08-19T04:03:43;21.80;77.50
66928;DHT22;59882;45.624;11.698;2022-08-19T04:08:41;21.80;77.40
66928;DHT22;59882;45.624;11.698;2022-08-19T04:11:13;21.80;77.30
66928;DHT22;59882;45.624;11.698;2022-08-19T04:13:39;21.80;77.30
66928;DHT22;59882;45.624;11.698;2022-08-19T04:16:06;21.70;77.10
66928;DHT22;59882;45.624;11.698;2022-08-19T04:18:33;21.70;77.20
66928;DHT22;59882;45.624;11.698;2022-08-19T04:20:59;21.70;77.50
66928;DHT22;59882;45.624;11.698;2022-08-19T04:23:25;21.70;77.60
66928;DHT22;59882;45.624;11.698;2022-08-19T04:25:54;21.70;77.60
66928;DHT22;59882;45.624;11.698;2022-08-19T04:28:20;21.70;77.40
66928;DHT22;59882;45.624;11.698;2022-08-19T04:30:48;21.70;77.40
66928;DHT22;59882;45.624;11.698;2022-08-19T04:33:19;21.70;77.40
66928;DHT22;59882;45.624;11.698;2022-08-19T04:35:47;21.70;77.40
66928;DHT22;59882;45.624;11.698;2022-08-19T04:38:15;21.70;77.40
66928;DHT22;59882;45.624;11.698;2022-08-19T04:40:43;21.60;77.20
66928;DHT22;59882;45.624;11.698;2022-08-19T04:43:28;21.60;77.00
66928;DHT22;59882;45.624;11.698;2022-08-19T04:45:54;21.60;76.70
66928;DHT22;59882;45.624;11.698;2022-08-19T04:48:20;21.50;76.70
66928;DHT22;59882;45.624;11.698;2022-08-19T04:50:52;21.50;76.90
66928;DHT22;59882;45.624;11.698;2022-08-19T04:53:33;21.50;77.30
66928;DHT22;59882;45.624;11.698;2022-08-19T04:56:05;21.40;77.50
66928;DHT22;59882;45.624;11.698;2022-08-19T04:58:32;21.40;77.40
66928;DHT22;59882;45.624;11.698;2022-08-19T05:00:58;21.40;77.20
66928;DHT22;59882;45.624;11.698;2022-08-19T05:03:26;21.40;77.40
66928;DHT22;59882;45.624;11.698;2022-08-19T05:05:52;21.50;77.80
66928;DHT22;59882;45.624;11.698;2022-08-19T05:08:20;21.50;78.80
66928;DHT22;59882;45.624;11.698;2022-08-19T05:10:48;21.50;78.90
66928;DHT22;59882;45.624;11.698;2022-08-19T05:13:17;21.50;79.20
66928;DHT22;59882;45.624;11.698;2022-08-19T05:15:43;21.50;79.20
66928;DHT22;59882;45.624;11.698;2022-08-19T05:18:09;21.50;79.20
66928;DHT22;59882;45.624;11.698;2022-08-19T05:20:54;21.50;79.10
66928;DHT22;59882;45.624;11.698;2022-08-19T05:23:37;21.50;79.00
66928;DHT22;59882;45.624;11.698;2022-08-19T05:26:03;21.40;79.00
66928;DHT22;59882;45.624;11.698;2022-08-19T05:28:29;21.50;79.50
66928;DHT22;59882;45.624;11.698;2022-08-19T05:30:55;21.50;79.40
66928;DHT22;59882;45.624;11.698;2022-08-19T05:33:22;21.50;79.40
66928;DHT22;59882;45.624;11.698;2022-08-19T05:35:48;21.50;79.30
66928;DHT22;59882;45.624;11.698;2022-08-19T05:38:18;21.50;79.10
66928;DHT22;59882;45.624;11.698;2022-08-19T05:40:43;21.60;79.10
66928;DHT22;59882;45.624;11.698;2022-08-19T05:43:12;21.70;79.20
66928;DHT22;59882;45.624;11.698;2022-08-19T05:45:41;21.70;79.20
66928;DHT22;59882;45.624;11.698;2022-08-19T05:48:07;21.80;79.50
66928;DHT22;59882;45.624;11.698;2022-08-19T05:50:37;21.80;79.40
66928;DHT22;59882;45.624;11.698;2022-08-19T05:53:04;21.90;79.60
66928;DHT22;59882;45.624;11.698;2022-08-19T05:55:29;21.90;79.90
66928;DHT22;59882;45.624;11.698;2022-08-19T05:57:55;21.90;79.40
66928;DHT22;59882;45.624;11.698;2022-08-19T06:00:21;22.00;79.50
66928;DHT22;59882;45.624;11.698;2022-08-19T06:02:46;22.10;79.40
66928;DHT22;59882;45.624;11.698;2022-08-19T06:05:12;22.20;79.70
66928;DHT22;59882;45.624;11.698;2022-08-19T06:07:39;22.20;79.10
66928;DHT22;59882;45.624;11.698;2022-08-19T06:10:06;22.30;79.10
66928;DHT22;59882;45.624;11.698;2022-08-19T06:12:33;22.40;79.00
66928;DHT22;59882;45.624;11.698;2022-08-19T06:15:08;22.40;78.70
66928;DHT22;59882;45.624;11.698;2022-08-19T06:17:34;22.50;77.50
66928;DHT22;59882;45.624;11.698;2022-08-19T06:20:02;22.50;76.80
66928;DHT22;59882;45.624;11.698;2022-08-19T06:22:28;22.50;77.50
66928;DHT22;59882;45.624;11.698;2022-08-19T06:24:55;22.40;77.30
66928;DHT22;59882;45.624;11.698;2022-08-19T06:27:21;22.40;77.50
66928;DHT22;59882;45.624;11.698;2022-08-19T06:29:46;22.40;77.30
66928;DHT22;59882;45.624;11.698;2022-08-19T06:32:14;22.40;77.70
66928;DHT22;59882;45.624;11.698;2022-08-19T06:34:42;22.40;77.90
66928;DHT22;59882;45.624;11.698;2022-08-19T06:37:08;22.40;78.10
66928;DHT22;59882;45.624;11.698;2022-08-19T06:39:37;22.40;77.60
66928;DHT22;59882;45.624;11.698;2022-08-19T06:42:04;22.50;77.40
66928;DHT22;59882;45.624;11.698;2022-08-19T06:44:34;22.50;77.70
66928;DHT22;59882;45.624;11.698;2022-08-19T06:47:07;22.50;77.60
66928;DHT22;59882;45.624;11.698;2022-08-19T06:49:34;22.60;77.40
66928;DHT22;59882;45.624;11.698;2022-08-19T06:52:00;22.70;77.40
66928;DHT22;59882;45.624;11.698;2022-08-19T06:54:27;22.80;77.20
66928;DHT22;59882;45.624;11.698;2022-08-19T06:56:54;22.80;76.90
66928;DHT22;59882;45.624;11.698;2022-08-19T06:59:21;22.80;76.80
66928;DHT22;59882;45.624;11.698;2022-08-19T07:01:52;22.80;76.60
66928;DHT22;59882;45.624;11.698;2022-08-19T07:04:21;22.80;76.70
66928;DHT22;59882;45.624;11.698;2022-08-19T07:06:48;22.80;76.80
66928;DHT22;59882;45.624;11.698;2022-08-19T07:09:16;22.70;77.30
66928;DHT22;59882;45.624;11.698;2022-08-19T07:11:46;22.60;77.30
66928;DHT22;59882;45.624;11.698;2022-08-19T07:14:13;22.60;77.20
66928;DHT22;59882;45.624;11.698;2022-08-19T07:16:39;22.60;77.30
66928;DHT22;59882;45.624;11.698;2022-08-19T07:19:05;22.60;77.50
66928;DHT22;59882;45.624;11.698;2022-08-19T07:21:31;22.60;76.80
66928;DHT22;59882;45.624;11.698;2022-08-19T07:23:58;22.50;74.90
66928;DHT22;59882;45.624;11.698;2022-08-19T07:26:29;22.40;75.90
66928;DHT22;59882;45.624;11.698;2022-08-19T07:28:56;22.40;76.20
66928;DHT22;59882;45.624;11.698;2022-08-19T07:31:25;22.40;76.50
66928;DHT22;59882;45.624;11.698;2022-08-19T07:33:53;22.40;76.60
66928;DHT22;59882;45.624;11.698;2022-08-19T07:36:22;22.40;76.60
66928;DHT22;59882;45.624;11.698;2022-08-19T07:38:51;22.40;76.90
66928;DHT22;59882;45.624;11.698;2022-08-19T07:41:21;22.40;76.90
66928;DHT22;59882;45.624;11.698;2022-08-19T07:43:47;22.40;77.30
66928;DHT22;59882;45.624;11.698;2022-08-19T07:46:14;22.30;77.70
66928;DHT22;59882;45.624;11.698;2022-08-19T07:48:41;22.20;77.80
66928;DHT22;59882;45.624;11.698;2022-08-19T07:51:09;22.10;78.00
66928;DHT22;59882;45.624;11.698;2022-08-19T07:53:36;22.10;78.00
66928;DHT22;59882;45.624;11.698;2022-08-19T07:56:02;22.10;78.00
66928;DHT22;59882;45.624;11.698;2022-08-19T07:58:32;22.00;78.20
66928;DHT22;59882;45.624;11.698;2022-08-19T08:00:59;22.00;78.40
66928;DHT22;59882;45.624;11.698;2022-08-19T08:03:25;21.90;78.50
66928;DHT22;59882;45.624;11.698;2022-08-19T08:06:12;22.00;78.30
66928;DHT22;59882;45.624;11.698;2022-08-19T08:08:56;22.10;78.30
66928;DHT22;59882;45.624;11.698;2022-08-19T08:11:43;22.10;78.00
66928;DHT22;59882;45.624;11.698;2022-08-19T08:14:15;22.10;78.00
66928;DHT22;59882;45.624;11.698;2022-08-19T08:16:41;22.20;77.90
66928;DHT22;59882;45.624;11.698;2022-08-19T08:19:09;22.20;78.00
66928;DHT22;59882;45.624;11.698;2022-08-19T08:21:35;22.20;77.90
66928;DHT22;59882;45.624;11.698;2022-08-19T08:24:01;22.10;78.10
66928;DHT22;59882;45.624;11.698;2022-08-19T08:26:26;22.10;78.20
66928;DHT22;59882;45.624;11.698;2022-08-19T08:28:52;22.10;78.70
66928;DHT22;59882;45.624;11.698;2022-08-19T08:31:19;22.20;78.60
66928;DHT22;59882;45.624;11.698;2022-08-19T08:33:46;22.10;78.40
66928;DHT22;59882;45.624;11.698;2022-08-19T08:36:13;22.20;78.50
66928;DHT22;59882;45.624;11.698;2022-08-19T08:38:40;22.10;78.40
66928;DHT22;59882;45.624;11.698;2022-08-19T08:43:49;22.00;78.70
66928;DHT22;59882;45.624;11.698;2022-08-19T08:48:56;22.00;78.50
66928;DHT22;59882;45.624;11.698;2022-08-19T08:51:26;22.00;78.40
66928;DHT22;59882;45.624;11.698;2022-08-19T08:53:54;22.10;78.40
66928;DHT22;59882;45.624;11.698;2022-08-19T08:56:21;22.30;78.20
66928;DHT22;59882;45.624;11.698;2022-08-19T08:59:07;22.30;78.10
66928;DHT22;59882;45.624;11.698;2022-08-19T09:01:35;22.20;77.80
66928;DHT22;59882;45.624;11.698;2022-08-19T09:04:04;22.10;76.90
66928;DHT22;59882;45.624;11.698;2022-08-19T09:06:44;22.00;77.20
66928;DHT22;59882;45.624;11.698;2022-08-19T09:15:16;21.80;76.80
66928;DHT22;59882;45.624;11.698;2022-08-19T09:17:43;21.70;76.10
66928;DHT22;59882;45.624;11.698;2022-08-19T09:22:37;21.50;76.80
66928;DHT22;59882;45.624;11.698;2022-08-19T09:25:05;21.50;77.20
66928;DHT22;59882;45.624;11.698;2022-08-19T09:27:31;21.60;77.80
66928;DHT22;59882;45.624;11.698;2022-08-19T09:29:57;21.60;78.10
66928;DHT22;59882;45.624;11.698;2022-08-19T09:32:25;21.70;78.80
66928;DHT22;59882;45.624;11.698;2022-08-19T09:34:52;21.70;77.20
66928;DHT22;59882;45.624;11.698;2022-08-19T09:37:24;21.80;76.80
66928;DHT22;59882;45.624;11.698;2022-08-19T09:39:50;21.80;76.80
66928;DHT22;59882;45.624;11.698;2022-08-19T09:42:16;21.90;76.50
66928;DHT22;59882;45.624;11.698;2022-08-19T09:44:43;21.90;77.40
66928;DHT22;59882;45.624;11.698;2022-08-19T09:47:10;21.80;76.70
66928;DHT22;59882;45.624;11.698;2022-08-19T09:49:37;21.90;77.00
66928;DHT22;59882;45.624;11.698;2022-08-19T09:52:04;21.80;76.80
66928;DHT22;59882;45.624;11.698;2022-08-19T09:54:30;21.80;76.90
66928;DHT22;59882;45.624;11.698;2022-08-19T09:56:58;21.80;77.80
66928;DHT22;59882;45.624;11.698;2022-08-19T09:59:26;21.90;77.60
66928;DHT22;59882;45.624;11.698;2022-08-19T10:01:52;21.90;77.50
66928;DHT22;59882;45.624;11.698;2022-08-19T10:04:18;22.10;77.00
66928;DHT22;59882;45.624;11.698;2022-08-19T10:06:43;22.10;76.60
66928;DHT22;59882;45.624;11.698;2022-08-19T10:09:10;22.30;76.50
66928;DHT22;59882;45.624;11.698;2022-08-19T10:11:39;22.20;75.20
66928;DHT22;59882;45.624;11.698;2022-08-19T10:14:05;22.40;75.60
66928;DHT22;59882;45.624;11.698;2022-08-19T10:16:36;22.40;75.00
66928;DHT22;59882;45.624;11.698;2022-08-19T10:19:02;22.40;75.10
66928;DHT22;59882;45.624;11.698;2022-08-19T10:21:30;22.40;75.80
66928;DHT22;59882;45.624;11.698;2022-08-19T10:23:58;22.40;74.30
66928;DHT22;59882;45.624;11.698;2022-08-19T10:26:26;22.40;75.40
66928;DHT22;59882;45.624;11.698;2022-08-19T10:28:53;22.40;75.90
66928;DHT22;59882;45.624;11.698;2022-08-19T10:31:23;22.50;74.50
66928;DHT22;59882;45.624;11.698;2022-08-19T10:33:50;22.60;74.80
66928;DHT22;59882;45.624;11.698;2022-08-19T10:36:27;22.60;74.40
66928;DHT22;59882;45.624;11.698;2022-08-19T10:38:55;22.70;75.50
66928;DHT22;59882;45.624;11.698;2022-08-19T10:41:26;22.80;75.30
66928;DHT22;59882;45.624;11.698;2022-08-19T10:43:58;22.90;73.70
66928;DHT22;59882;45.624;11.698;2022-08-19T10:46:26;23.00;74.90
66928;DHT22;59882;45.624;11.698;2022-08-19T10:48:53;23.00;73.90
66928;DHT22;59882;45.624;11.698;2022-08-19T10:51:20;23.10;74.00
66928;DHT22;59882;45.624;11.698;2022-08-19T10:54:04;23.10;73.20
66928;DHT22;59882;45.624;11.698;2022-08-19T10:56:30;23.20;73.60
66928;DHT22;59882;45.624;11.698;2022-08-19T10:59:15;23.30;73.70
66928;DHT22;59882;45.624;11.698;2022-08-19T11:01:43;23.40;73.50
66928;DHT22;59882;45.624;11.698;2022-08-19T11:04:09;23.50;73.40
66928;DHT22;59882;45.624;11.698;2022-08-19T11:06:37;23.50;72.40
66928;DHT22;59882;45.624;11.698;2022-08-19T11:09:04;23.70;73.30
66928;DHT22;59882;45.624;11.698;2022-08-19T11:11:31;23.80;73.40
66928;DHT22;59882;45.624;11.698;2022-08-19T11:13:57;24.00;72.70
66928;DHT22;59882;45.624;11.698;2022-08-19T11:16:25;24.20;70.80
66928;DHT22;59882;45.624;11.698;2022-08-19T11:18:53;24.20;69.50
66928;DHT22;59882;45.624;11.698;2022-08-19T11:21:22;24.20;68.80
66928;DHT22;59882;45.624;11.698;2022-08-19T11:23:51;24.30;69.30
66928;DHT22;59882;45.624;11.698;2022-08-19T11:26:18;24.40;67.80
66928;DHT22;59882;45.624;11.698;2022-08-19T11:28:44;24.50;69.10
66928;DHT22;59882;45.624;11.698;2022-08-19T11:31:12;24.60;66.40
66928;DHT22;59882;45.624;11.698;2022-08-19T11:33:39;24.60;68.00
66928;DHT22;59882;45.624;11.698;2022-08-19T11:36:05;24.70;67.60
66928;DHT22;59882;45.624;11.698;2022-08-19T11:38:31;24.70;67.30
66928;DHT22;59882;45.624;11.698;2022-08-19T11:40:59;24.70;68.00
66928;DHT22;59882;45.624;11.698;2022-08-19T11:43:25;24.80;67.60
66928;DHT22;59882;45.624;11.698;2022-08-19T11:45:55;24.90;67.70
66928;DHT22;59882;45.624;11.698;2022-08-19T11:48:21;24.90;66.40
66928;DHT22;59882;45.624;11.698;2022-08-19T11:50:52;24.90;66.10
66928;DHT22;59882;45.624;11.698;2022-08-19T11:53:19;25.00;66.20
66928;DHT22;59882;45.624;11.698;2022-08-19T11:55:46;24.90;66.60
66928;DHT22;59882;45.624;11.698;2022-08-19T11:58:14;24.90;67.20
66928;DHT22;59882;45.624;11.698;2022-08-19T12:00:40;24.90;67.60
66928;DHT22;59882;45.624;11.698;2022-08-19T12:03:07;24.80;67.50
66928;DHT22;59882;45.624;11.698;2022-08-19T12:05:33;24.70;67.50
66928;DHT22;59882;45.624;11.698;2022-08-19T12:08:01;24.70;67.40
66928;DHT22;59882;45.624;11.698;2022-08-19T12:10:27;24.70;67.80
66928;DHT22;59882;45.624;11.698;2022-08-19T12:12:52;24.60;68.10
66928;DHT22;59882;45.624;11.698;2022-08-19T12:15:18;24.60;68.30
66928;DHT22;59882;45.624;11.698;2022-08-19T12:17:43;24.70;67.20
66928;DHT22;59882;45.624;11.698;2022-08-19T12:20:10;24.70;67.70
66928;DHT22;59882;45.624;11.698;2022-08-19T12:22:37;24.80;67.20
66928;DHT22;59882;45.624;11.698;2022-08-19T12:25:04;24.80;67.10
66928;DHT22;59882;45.624;11.698;2022-08-19T12:27:30;24.90;66.60
66928;DHT22;59882;45.624;11.698;2022-08-19T12:29:56;24.90;66.80
66928;DHT22;59882;45.624;11.698;2022-08-19T12:32:22;25.00;65.90
66928;DHT22;59882;45.624;11.698;2022-08-19T12:34:49;25.20;66.30
66928;DHT22;59882;45.624;11.698;2022-08-19T12:37:14;25.40;66.00
66928;DHT22;59882;45.624;11.698;2022-08-19T12:39:41;25.60;64.80
66928;DHT22;59882;45.624;11.698;2022-08-19T12:42:08;25.80;62.60
66928;DHT22;59882;45.624;11.698;2022-08-19T12:44:36;25.90;62.30
66928;DHT22;59882;45.624;11.698;2022-08-19T12:47:02;26.20;62.50
66928;DHT22;59882;45.624;11.698;2022-08-19T12:49:30;26.40;58.20
66928;DHT22;59882;45.624;11.698;2022-08-19T12:51:57;26.70;60.00
66928;DHT22;59882;45.624;11.698;2022-08-19T12:54:23;27.00;57.70
66928;DHT22;59882;45.624;11.698;2022-08-19T12:56:49;27.00;58.80
66928;DHT22;59882;45.624;11.698;2022-08-19T12:59:14;27.20;59.30
66928;DHT22;59882;45.624;11.698;2022-08-19T13:01:44;27.50;58.50
66928;DHT22;59882;45.624;11.698;2022-08-19T13:04:10;27.70;57.30
66928;DHT22;59882;45.624;11.698;2022-08-19T13:06:36;28.30;58.60
66928;DHT22;59882;45.624;11.698;2022-08-19T13:09:03;29.60;57.80
66928;DHT22;59882;45.624;11.698;2022-08-19T13:11:29;31.20;50.10
66928;DHT22;59882;45.624;11.698;2022-08-19T13:13:57;32.70;46.90
66928;DHT22;59882;45.624;11.698;2022-08-19T13:16:23;34.20;43.70
66928;DHT22;59882;45.624;11.698;2022-08-19T13:18:49;35.40;40.60
66928;DHT22;59882;45.624;11.698;2022-08-19T13:21:19;36.10;40.30
66928;DHT22;59882;45.624;11.698;2022-08-19T13:23:46;36.30;39.60
66928;DHT22;59882;45.624;11.698;2022-08-19T13:26:12;36.70;38.30
66928;DHT22;59882;45.624;11.698;2022-08-19T13:28:39;37.00;37.20
66928;DHT22;59882;45.624;11.698;2022-08-19T13:31:25;37.30;36.40
66928;DHT22;59882;45.624;11.698;2022-08-19T13:34:10;37.80;36.30
66928;DHT22;59882;45.624;11.698;2022-08-19T13:36:37;37.80;35.50
66928;DHT22;59882;45.624;11.698;2022-08-19T13:39:04;37.60;35.40
66928;DHT22;59882;45.624;11.698;2022-08-19T13:41:30;37.80;35.80
66928;DHT22;59882;45.624;11.698;2022-08-19T13:43:56;38.40;35.90
66928;DHT22;59882;45.624;11.698;2022-08-19T13:46:21;39.00;34.50
66928;DHT22;59882;45.624;11.698;2022-08-19T13:48:48;39.30;34.30
66928;DHT22;59882;45.624;11.698;2022-08-19T13:51:15;39.10;34.40
66928;DHT22;59882;45.624;11.698;2022-08-19T13:53:42;39.00;33.10
66928;DHT22;59882;45.624;11.698;2022-08-19T13:56:11;38.90;32.50
66928;DHT22;59882;45.624;11.698;2022-08-19T13:58:38;38.70;32.40
66928;DHT22;59882;45.624;11.698;2022-08-19T14:01:05;38.50;34.20
66928;DHT22;59882;45.624;11.698;2022-08-19T14:03:32;38.50;33.20
66928;DHT22;59882;45.624;11.698;2022-08-19T14:05:58;38.70;34.20
66928;DHT22;59882;45.624;11.698;2022-08-19T14:08:24;38.90;32.60
66928;DHT22;59882;45.624;11.698;2022-08-19T14:10:51;39.00;31.50
66928;DHT22;59882;45.624;11.698;2022-08-19T14:13:19;38.90;33.00
66928;DHT22;59882;45.624;11.698;2022-08-19T14:15:46;39.10;32.50
66928;DHT22;59882;45.624;11.698;2022-08-19T14:18:13;39.20;31.20
66928;DHT22;59882;45.624;11.698;2022-08-19T14:20:38;39.40;30.90
66928;DHT22;59882;45.624;11.698;2022-08-19T14:23:04;39.40;30.60
66928;DHT22;59882;45.624;11.698;2022-08-19T14:25:33;39.40;30.20
66928;DHT22;59882;45.624;11.698;2022-08-19T14:27:59;39.10;31.60
66928;DHT22;59882;45.624;11.698;2022-08-19T14:30:31;39.20;31.70
66928;DHT22;59882;45.624;11.698;2022-08-19T14:32:59;39.10;31.70
66928;DHT22;59882;45.624;11.698;2022-08-19T14:35:29;39.20;31.20
66928;DHT22;59882;45.624;11.698;2022-08-19T14:37:55;39.10;31.80
66928;DHT22;59882;45.624;11.698;2022-08-19T14:40:24;38.90;31.50
66928;DHT22;59882;45.624;11.698;2022-08-19T14:42:56;39.00;31.80
66928;DHT22;59882;45.624;11.698;2022-08-19T14:45:25;39.00;31.10
66928;DHT22;59882;45.624;11.698;2022-08-19T14:47:51;39.00;32.20
66928;DHT22;59882;45.624;11.698;2022-08-19T14:50:18;38.60;32.10
66928;DHT22;59882;45.624;11.698;2022-08-19T14:52:44;38.50;32.80
66928;DHT22;59882;45.624;11.698;2022-08-19T14:55:10;38.50;32.70
66928;DHT22;59882;45.624;11.698;2022-08-19T14:57:36;38.50;31.00
66928;DHT22;59882;45.624;11.698;2022-08-19T15:00:02;38.30;32.60
66928;DHT22;59882;45.624;11.698;2022-08-19T15:02:28;38.20;33.40
66928;DHT22;59882;45.624;11.698;2022-08-19T15:04:54;38.10;34.30
66928;DHT22;59882;45.624;11.698;2022-08-19T15:07:21;37.90;34.60
66928;DHT22;59882;45.624;11.698;2022-08-19T15:09:49;37.40;35.40
66928;DHT22;59882;45.624;11.698;2022-08-19T15:12:16;36.80;35.00
66928;DHT22;59882;45.624;11.698;2022-08-19T15:14:41;36.30;35.90
66928;DHT22;59882;45.624;11.698;2022-08-19T15:17:09;35.70;37.10
66928;DHT22;59882;45.624;11.698;2022-08-19T15:19:35;35.40;37.80
66928;DHT22;59882;45.624;11.698;2022-08-19T15:22:01;35.20;37.90
66928;DHT22;59882;45.624;11.698;2022-08-19T15:24:27;35.00;37.90
66928;DHT22;59882;45.624;11.698;2022-08-19T15:26:54;34.60;38.40
66928;DHT22;59882;45.624;11.698;2022-08-19T15:29:21;34.20;39.60
66928;DHT22;59882;45.624;11.698;2022-08-19T15:31:50;33.50;40.40
66928;DHT22;59882;45.624;11.698;2022-08-19T15:34:16;32.90;41.40
66928;DHT22;59882;45.624;11.698;2022-08-19T15:36:42;32.00;39.70
66928;DHT22;59882;45.624;11.698;2022-08-19T15:39:08;31.40;40.80